Time;durP1;ratioP1;P1;durP2;ratioP2;P2;SDS_P1;SDS_P2;PMS_P1;PMS_P2;Temp;Humidity;BMP_temperature;BMP_pressure;BME280_temperature;BME280_humidity;BME280_pressure;Samples;Min_cycle;Max_cycle;Signal;HPM_P1;HPM_P2
2022/11/03 00:00:19;;;;;;;9.52;1.95;;;;;;;8.13;81.92;101287.59;6001811;28;20050;-67
2022/11/03 00:03:15;;;;;;;10.53;2.00;;;;;;;8.24;81.51;101302.63;6000132;28;20039;-67
2022/11/03 00:06:10;;;;;;;6.30;1.30;;;;;;;8.21;81.46;101294.94;6002614;28;20023;-67
2022/11/03 00:09:08;;;;;;;4.57;1.90;;;;;;;8.24;81.25;101292.06;6002959;28;20067;-68
2022/11/03 00:12:03;;;;;;;2.35;1.08;;;;;;;8.04;81.78;101283.03;6002114;28;20817;-68
2022/11/03 00:14:59;;;;;;;7.03;1.38;;;;;;;8.07;81.63;101282.75;6002390;28;20031;-67
2022/11/03 00:17:54;;;;;;;5.93;1.13;;;;;;;8.22;81.55;101289.53;6002170;28;20089;-67
2022/11/03 00:21:16;;;;;;;8.07;1.37;;;;;;;8.33;81.43;101283.47;6001590;28;20042;-67
2022/11/03 00:24:12;;;;;;;5.35;1.27;;;;;;;8.54;80.14;101270.38;6001122;28;20047;-67
2022/11/03 00:27:07;;;;;;;5.82;0.90;;;;;;;8.69;79.35;101275.34;6002602;28;20035;-68
2022/11/03 00:30:03;;;;;;;2.95;0.98;;;;;;;8.68;79.25;101264.88;6002444;28;20027;-67
2022/11/03 00:32:58;;;;;;;3.38;1.20;;;;;;;8.76;78.85;101271.25;6002119;28;20046;-68
2022/11/03 00:35:58;;;;;;;4.57;1.20;;;;;;;8.76;78.78;101273.88;6001820;28;20034;-69
2022/11/03 00:38:53;;;;;;;3.95;1.10;;;;;;;8.74;78.92;101272.34;6002146;28;20042;-68
2022/11/03 00:41:49;;;;;;;5.90;1.65;;;;;;;8.64;79.49;101271.38;6000093;28;20114;-68
2022/11/03 00:44:44;;;;;;;4.70;1.87;;;;;;;8.53;79.99;101269.56;6002063;28;20058;-68
2022/11/03 00:48:28;;;;;;;7.70;2.30;;;;;;;8.35;80.40;101249.84;6001718;28;20066;-67
2022/11/03 00:51:08;;;;;;;4.53;1.48;;;;;;;8.30;80.84;101254.63;6001125;28;20042;-68
2022/11/03 00:54:04;;;;;;;5.53;1.25;;;;;;;8.18;81.51;101240.53;6000886;28;20034;-68
2022/11/03 00:57:00;;;;;;;9.20;1.10;;;;;;;8.27;81.48;101261.00;6001760;28;20066;-68
2022/11/03 00:59:55;;;;;;;5.23;1.17;;;;;;;8.19;81.44;101250.16;6001228;28;20090;-68
2022/11/03 01:02:50;;;;;;;8.37;1.43;;;;;;;8.19;81.53;101249.31;5998896;28;20074;-68
2022/11/03 01:09:00;;;;;;;8.63;1.58;;;;;;;8.19;82.32;101249.31;6001283;28;20027;-68
2022/11/03 01:12:16;;;;;;;3.87;1.13;;;;;;;8.07;81.93;101227.31;6001049;28;20022;-69
2022/11/03 01:15:11;;;;;;;4.72;1.42;;;;;;;8.29;81.96;101245.88;6001178;28;20062;-68
2022/11/03 01:18:07;;;;;;;6.00;1.20;;;;;;;8.26;81.54;101227.56;6001627;28;20045;-68
2022/11/03 01:21:02;;;;;;;8.20;1.50;;;;;;;8.35;81.38;101239.25;6001103;28;20466;-69
2022/11/03 01:24:00;;;;;;;8.33;1.10;;;;;;;8.51;80.98;101231.81;6001166;28;20065;-68
2022/11/03 01:26:56;;;;;;;4.15;1.10;;;;;;;8.46;80.79;101223.41;6001385;28;20317;-68
2022/11/03 01:29:51;;;;;;;6.13;1.10;;;;;;;8.56;80.10;101232.31;6000858;28;20052;-68
2022/11/03 01:32:46;;;;;;;7.43;1.73;;;;;;;8.54;80.29;101228.94;6000734;28;20269;-68
2022/11/03 01:35:41;;;;;;;6.43;1.53;;;;;;;8.50;80.66;101216.94;6000444;28;20118;-68
2022/11/03 01:38:37;;;;;;;6.33;1.07;;;;;;;8.59;80.62;101210.09;6000683;28;20035;-67
2022/11/03 01:41:32;;;;;;;3.03;1.20;;;;;;;8.50;80.38;101193.16;5999993;28;20471;-67
2022/11/03 01:44:29;;;;;;;7.23;1.40;;;;;;;8.70;80.18;101207.41;6000503;28;20050;-68
2022/11/03 01:47:32;;;;;;;8.05;1.63;;;;;;;8.73;79.64;101192.16;6000671;28;20041;-68
2022/11/03 01:50:29;;;;;;;7.00;1.17;;;;;;;8.78;79.64;101199.72;5998337;28;20035;-68
2022/11/03 01:53:24;;;;;;;10.05;1.30;;;;;;;8.65;79.65;101172.59;6000493;28;20463;-68
2022/11/03 01:56:20;;;;;;;6.47;1.55;;;;;;;8.77;79.44;101182.19;5998540;28;20122;-69
2022/11/03 01:59:17;;;;;;;7.15;1.27;;;;;;;8.73;79.22;101170.16;5998852;28;20118;-67
2022/11/03 02:02:12;;;;;;;5.78;1.10;;;;;;;8.80;79.01;101163.44;5998016;28;20491;-69
2022/11/03 02:05:09;;;;;;;4.07;1.40;;;;;;;8.89;78.70;101175.91;5998957;28;20041;-68
2022/11/03 02:08:20;;;;;;;5.18;1.65;;;;;;;8.95;78.58;101164.84;6000508;28;20110;-68
2022/11/03 02:14:29;;;;;;;6.47;1.50;;;;;;;8.99;77.84;101139.81;5999598;28;20070;-68
2022/11/03 02:17:26;;;;;;;6.23;1.23;;;;;;;9.08;77.15;101139.06;5999641;28;20132;-68
2022/11/03 02:20:27;;;;;;;7.65;1.10;;;;;;;9.17;77.36;101137.47;5999301;28;20039;-68
2022/11/03 02:23:25;;;;;;;;;;;;;;;9.25;77.00;101130.56;6014539;28;20426;-68
2022/11/03 02:26:21;;;;;;;6.15;1.38;;;;;;;9.32;76.40;101137.03;5997922;28;19910;-69
2022/11/03 02:29:16;;;;;;;9.18;2.08;;;;;;;9.30;76.41;101128.38;5999558;28;20046;-68
2022/11/03 02:32:21;;;;;;;5.73;1.30;;;;;;;9.23;76.38;101124.56;5997811;28;20457;-68
2022/11/03 02:35:43;;;;;;;8.90;1.50;;;;;;;9.32;76.46;101141.50;5999671;28;20302;-68
2022/11/03 02:38:45;;;;;;;8.85;1.35;;;;;;;9.15;76.86;101131.47;5988127;28;20065;-68
2022/11/03 02:41:40;;;;;;;6.20;1.30;;;;;;;9.16;76.83;101115.44;5998705;28;20058;-68
2022/11/03 02:44:37;;;;;;;5.82;1.10;;;;;;;9.10;77.23;101121.28;5998100;28;20034;-68
2022/11/03 02:47:33;;;;;;;5.47;1.40;;;;;;;9.00;77.49;101115.03;5998574;28;20038;-67
2022/11/03 02:50:32;;;;;;;7.55;1.30;;;;;;;9.08;77.63;101125.81;5998918;28;20027;-68
2022/11/03 02:53:28;;;;;;;7.40;1.77;;;;;;;8.95;78.01;101114.56;5999434;28;20030;-67
2022/11/03 02:56:24;;;;;;;6.20;1.48;;;;;;;9.01;78.01;101111.44;5999571;28;20438;-68
2022/11/03 02:59:24;;;;;;;6.68;1.20;;;;;;;9.01;77.68;101095.56;5991877;28;20070;-68
2022/11/03 03:02:23;;;;;;;4.20;1.08;;;;;;;9.04;77.35;101099.75;5995534;28;20031;-68
2022/11/03 03:05:23;;;;;;;6.30;1.08;;;;;;;9.07;77.68;101099.50;5997689;28;20035;-68
2022/11/03 03:08:20;;;;;;;8.05;1.20;;;;;;;9.17;76.90;101095.97;5998612;28;20074;-67
2022/11/03 03:11:15;;;;;;;6.68;1.35;;;;;;;9.26;76.31;101089.94;5997418;28;20557;-67
2022/11/03 03:14:17;;;;;;;7.95;1.60;;;;;;;9.32;76.17;101088.56;5997493;28;20023;-68
2022/11/03 03:17:41;;;;;;;7.15;1.25;;;;;;;9.18;76.23;101081.78;5997496;28;20165;-68
2022/11/03 03:20:40;;;;;;;5.97;1.35;;;;;;;9.22;76.30;101085.84;5990783;28;20129;-68
2022/11/03 03:23:40;;;;;;;7.30;1.20;;;;;;;9.20;76.54;101079.84;5996899;28;20106;-68
2022/11/03 03:26:40;;;;;;;2.85;1.05;;;;;;;9.10;76.48;101068.34;5997603;28;20035;-68
2022/11/03 03:29:45;;;;;;;9.20;1.85;;;;;;;9.22;76.31;101083.19;5998549;28;20088;-67
2022/11/03 03:32:45;;;;;;;6.60;1.30;;;;;;;9.19;76.50;101093.19;5996562;28;20593;-68
2022/11/03 03:35:43;;;;;;;5.05;1.90;;;;;;;9.16;76.53;101070.47;5998209;28;20117;-68
2022/11/03 03:38:48;;;;;;;8.27;1.67;;;;;;;9.09;76.70;101069.31;5996294;28;20141;-68
2022/11/03 03:41:45;;;;;;;6.65;1.52;;;;;;;9.09;76.84;101064.03;5996512;28;20833;-68
2022/11/03 03:44:42;;;;;;;6.63;1.40;;;;;;;9.13;76.38;101057.50;5997102;28;20097;-68
2022/11/03 03:47:37;;;;;;;8.05;1.60;;;;;;;9.24;76.18;101046.84;5996810;28;20053;-68
2022/11/03 03:50:36;;;;;;;7.03;1.38;;;;;;;9.27;76.14;101058.97;5991566;28;20498;-68
2022/11/03 03:53:31;;;;;;;6.03;2.08;;;;;;;9.20;76.39;101061.31;6005348;28;20037;-68
2022/11/03 03:56:50;;;;;;;8.93;1.27;;;;;;;9.11;76.44;101061.25;5998252;28;20582;-68
2022/11/03 03:59:46;;;;;;;3.72;1.15;;;;;;;8.29;78.74;101054.78;5997212;28;20050;-68
2022/11/03 04:02:41;;;;;;;4.40;1.20;;;;;;;7.88;80.88;101044.03;5995622;28;20118;-68
2022/11/03 04:05:36;;;;;;;6.03;1.50;;;;;;;7.54;82.86;101048.44;5994583;28;20046;-68
2022/11/03 04:08:32;;;;;;;5.50;1.40;;;;;;;7.34;83.86;101049.16;5997898;28;20499;-69
2022/11/03 04:24:25;;;;;;;9.98;2.78;;;;;;;7.11;85.68;101022.72;5997927;28;20030;-68
2022/11/03 04:27:35;;;;;;;7.23;1.93;;;;;;;7.10;86.08;101021.03;5997606;28;20063;-68
2022/11/03 04:30:30;;;;;;;5.53;1.50;;;;;;;6.95;86.42;101008.16;6000675;28;20032;-67
2022/11/03 04:33:28;;;;;;;9.20;1.80;;;;;;;7.07;86.54;101004.59;6002230;28;20086;-69
2022/11/03 04:36:24;;;;;;;10.48;1.77;;;;;;;7.20;85.52;101011.44;6002210;28;20153;-68
2022/11/03 04:39:20;;;;;;;7.65;2.33;;;;;;;7.11;86.16;101014.81;6002171;28;20529;-69
2022/11/03 04:42:20;;;;;;;7.80;1.80;;;;;;;7.02;86.58;101010.22;6001872;28;20054;-68
2022/11/03 04:45:27;;;;;;;7.82;1.33;;;;;;;7.14;86.61;101008.47;6001773;28;20097;-67
2022/11/03 04:48:24;;;;;;;7.00;1.67;;;;;;;7.25;86.24;101011.13;5993693;28;20513;-69
2022/11/03 04:51:24;;;;;;;7.28;1.40;;;;;;;7.27;85.91;101000.44;6001677;28;20122;-69
2022/11/03 04:54:22;;;;;;;10.55;1.52;;;;;;;7.62;84.81;100988.00;6000321;28;20030;-68
2022/11/03 04:57:17;;;;;;;4.60;1.33;;;;;;;7.77;83.69;100995.53;6000848;28;20045;-69
2022/11/03 05:00:16;;;;;;;6.18;1.52;;;;;;;7.89;83.05;101004.28;6000848;28;20035;-68
2022/11/03 05:03:16;;;;;;;7.95;1.50;;;;;;;7.91;83.01;101004.19;6002158;28;20106;-68
2022/11/03 05:06:15;;;;;;;4.93;1.73;;;;;;;7.86;83.29;101001.03;5997250;28;20038;-68
2022/11/03 05:09:15;;;;;;;4.55;1.20;;;;;;;7.76;83.39;100980.66;6002169;28;20043;-69
2022/11/03 05:12:11;;;;;;;10.90;1.48;;;;;;;7.80;82.97;100994.44;6001147;28;20088;-68
2022/11/03 05:15:21;;;;;;;9.80;2.00;;;;;;;7.78;83.14;100988.47;5999029;28;20035;-67
2022/11/03 05:18:21;;;;;;;7.38;1.80;;;;;;;7.72;82.73;100975.75;5999875;28;20529;-68
2022/11/03 05:21:21;;;;;;;4.60;1.50;;;;;;;7.58;83.11;100976.81;5999864;28;20035;-68
2022/11/03 05:24:18;;;;;;;7.60;1.85;;;;;;;7.41;83.86;100976.47;6000817;28;20039;-67
2022/11/03 05:27:21;;;;;;;10.27;2.25;;;;;;;7.19;83.80;100957.03;6001293;28;20413;-68
2022/11/03 05:30:16;;;;;;;6.18;1.73;;;;;;;7.15;84.28;100971.41;6000992;28;20026;-67
2022/11/03 05:33:28;;;;;;;8.60;1.73;;;;;;;7.11;84.73;100980.53;5986876;28;20071;-68
2022/11/03 05:36:25;;;;;;;6.68;1.48;;;;;;;7.00;85.59;100967.31;6008817;28;20704;-68
2022/11/03 05:39:34;;;;;;;11.57;1.80;;;;;;;6.85;85.58;100947.38;5997386;28;20134;-67
2022/11/03 05:42:34;;;;;;;7.85;1.67;;;;;;;6.84;86.08;100950.16;5999005;28;20031;-67
2022/11/03 05:45:34;;;;;;;5.70;1.70;;;;;;;6.74;86.64;100936.81;5999754;28;20027;-68
2022/11/03 05:48:38;;;;;;;8.38;1.58;;;;;;;6.89;86.67;100956.75;5998093;28;20089;-68
2022/11/03 05:51:37;;;;;;;4.45;1.80;;;;;;;6.86;86.97;100946.44;5998620;28;20503;-67
2022/11/03 05:54:33;;;;;;;5.50;1.45;;;;;;;6.88;86.59;100944.53;5998925;28;20782;-67
2022/11/03 05:57:29;;;;;;;12.27;1.63;;;;;;;6.95;87.08;100952.81;6000593;28;20043;-68
2022/11/03 06:00:30;;;;;;;9.57;2.00;;;;;;;6.90;86.99;100937.31;5998395;28;20049;-68
2022/11/03 06:03:30;;;;;;;11.23;2.05;;;;;;;6.92;87.25;100932.81;5999048;28;20039;-67
2022/11/03 06:06:34;;;;;;;8.02;1.75;;;;;;;7.00;87.43;100945.38;5988627;28;20070;-68
2022/11/03 06:09:31;;;;;;;5.25;1.70;;;;;;;7.19;86.86;100948.28;5992958;28;20114;-68
2022/11/03 06:12:29;;;;;;;8.75;1.90;;;;;;;7.16;86.76;100940.59;5998557;28;20027;-68
2022/11/03 06:15:30;;;;;;;6.85;1.58;;;;;;;7.25;86.74;100953.09;5999304;28;20038;-68
2022/11/03 06:18:30;;;;;;;4.90;1.50;;;;;;;7.13;86.95;100931.16;5998370;28;20382;-67
2022/11/03 06:21:25;;;;;;;3.08;1.13;;;;;;;7.23;86.98;100941.00;5993268;28;20045;-68
2022/11/03 06:24:22;;;;;;;7.45;1.60;;;;;;;7.29;87.22;100948.41;5993636;28;20657;-67
2022/11/03 06:27:21;;;;;;;5.93;1.70;;;;;;;7.20;86.98;100923.59;5996363;28;20067;-68
2022/11/03 06:30:23;;;;;;;8.13;1.63;;;;;;;7.30;87.08;100952.72;5998054;28;20123;-68
2022/11/03 06:33:26;;;;;;;4.07;1.35;;;;;;;7.29;87.57;100943.97;5991184;28;20086;-68
2022/11/03 06:36:24;;;;;;;8.52;1.60;;;;;;;7.28;87.62;100946.75;5986681;28;20161;-68
2022/11/03 06:39:22;;;;;;;11.57;1.83;;;;;;;7.29;87.72;100945.75;5992393;28;20477;-68
2022/11/03 06:42:20;;;;;;;7.60;1.80;;;;;;;7.30;87.91;100935.09;5998055;28;20031;-67
2022/11/03 06:45:20;;;;;;;10.82;1.50;;;;;;;7.43;87.66;100938.47;5999262;28;20558;-68
2022/11/03 06:48:29;;;;;;;6.03;1.38;;;;;;;7.48;87.48;100930.19;5997886;28;20058;-68
2022/11/03 06:51:28;;;;;;;5.20;1.67;;;;;;;7.53;87.14;100934.13;5998242;28;20175;-68
2022/11/03 06:54:25;;;;;;;6.90;1.50;;;;;;;7.69;86.95;100950.44;5994768;28;20456;-69
2022/11/03 06:57:21;;;;;;;11.73;1.70;;;;;;;7.77;86.52;100932.19;6006229;28;20063;-68
2022/11/03 07:00:28;;;;;;;4.43;1.40;;;;;;;7.83;86.35;100933.47;5994757;28;20027;-69
2022/11/03 07:03:32;;;;;;;7.03;2.10;;;;;;;7.85;86.22;100921.03;5998720;28;20048;-68
2022/11/03 07:06:36;;;;;;;9.43;2.03;;;;;;;7.94;86.42;100930.81;5998123;28;20470;-68
2022/11/03 07:09:31;;;;;;;8.40;1.90;;;;;;;8.07;86.30;100934.16;5999144;28;20491;-67
2022/11/03 07:12:26;;;;;;;7.93;1.90;;;;;;;8.19;85.72;100917.31;5998035;28;20041;-69
2022/11/03 07:15:30;;;;;;;6.77;1.90;;;;;;;8.22;85.40;100910.94;5999243;28;20102;-70
2022/11/03 07:18:29;;;;;;;8.23;2.15;;;;;;;8.24;85.34;100904.56;5999681;28;20035;-68
2022/11/03 07:21:40;;;;;;;5.65;1.55;;;;;;;8.38;85.38;100906.94;5998537;28;20117;-68
2022/11/03 07:24:39;;;;;;;8.52;3.10;;;;;;;8.44;85.31;100896.81;5998984;28;20673;-68
2022/11/03 07:27:38;;;;;;;7.00;1.98;;;;;;;8.59;84.87;100882.34;5997720;28;20490;-68
2022/11/03 07:30:34;;;;;;;7.85;1.92;;;;;;;8.84;83.99;100897.78;5997061;28;20058;-69
2022/11/03 07:33:30;;;;;;;12.57;2.03;;;;;;;9.08;83.11;100897.50;5997421;28;20062;-68
2022/11/03 07:36:28;;;;;;;7.15;1.90;;;;;;;9.17;82.67;100896.69;5997810;28;20385;-68
2022/11/03 07:39:33;;;;;;;9.57;2.75;;;;;;;9.28;81.99;100886.88;5998923;28;20121;-68
2022/11/03 07:42:31;;;;;;;6.03;1.58;;;;;;;9.29;81.80;100877.97;5996801;28;20110;-68
2022/11/03 07:45:38;;;;;;;8.80;2.33;;;;;;;9.19;82.22;100866.50;5998422;28;20058;-68
2022/11/03 07:48:45;;;;;;;7.97;2.20;;;;;;;9.17;82.12;100868.44;5998636;28;20118;-68
2022/11/03 07:51:40;;;;;;;9.30;1.90;;;;;;;9.23;82.33;100867.91;5996093;28;20034;-68
2022/11/03 07:54:36;;;;;;;9.50;1.98;;;;;;;9.24;82.12;100848.41;5988507;28;20065;-68
2022/11/03 07:57:32;;;;;;;7.27;1.70;;;;;;;9.37;82.17;100853.47;5997730;28;20086;-68
2022/11/03 08:00:28;;;;;;;7.88;1.80;;;;;;;9.51;81.72;100851.25;5997536;28;20281;-68
2022/11/03 08:03:35;;;;;;;7.10;2.07;;;;;;;9.57;81.23;100840.13;6000819;28;20026;-69
2022/11/03 08:06:31;;;;;;;5.97;2.00;;;;;;;9.69;81.06;100854.09;6004222;28;20038;-68
2022/11/03 08:09:27;;;;;;;9.75;2.42;;;;;;;9.71;80.58;100830.97;6003838;28;20054;-68
2022/11/03 08:12:22;;;;;;;9.87;2.00;;;;;;;9.83;80.62;100840.47;6001845;28;20030;-68
2022/11/03 08:15:17;;;;;;;12.47;2.40;;;;;;;9.86;80.56;100842.00;6002521;28;20097;-68
2022/11/03 08:18:13;;;;;;;7.67;2.20;;;;;;;9.49;81.41;100842.63;6001940;28;20625;-68
2022/11/03 08:21:08;;;;;;;6.50;1.60;;;;;;;9.27;81.58;100834.91;6001966;28;20042;-69
2022/11/03 08:24:04;;;;;;;9.15;2.58;;;;;;;9.06;82.65;100820.91;6002326;28;20289;-69
2022/11/03 08:26:59;;;;;;;9.45;1.92;;;;;;;9.01;83.43;100817.84;6002305;28;20027;-68
2022/11/03 08:29:55;;;;;;;6.23;2.37;;;;;;;8.80;84.17;100822.34;6002516;28;20041;-68
2022/11/03 08:32:50;;;;;;;6.00;2.43;;;;;;;9.07;83.90;100821.75;6001199;28;20023;-68
2022/11/03 08:35:45;;;;;;;5.17;1.60;;;;;;;9.03;83.54;100804.47;6002263;28;20046;-68
2022/11/03 08:38:41;;;;;;;7.10;1.87;;;;;;;8.98;84.25;100804.88;6002303;28;20290;-68
2022/11/03 08:41:36;;;;;;;8.68;1.98;;;;;;;8.97;84.49;100795.25;6001234;28;20697;-69
2022/11/03 08:44:31;;;;;;;8.60;2.30;;;;;;;9.11;84.36;100810.75;6002004;28;20043;-69
2022/11/03 08:47:27;;;;;;;7.87;1.70;;;;;;;8.90;84.87;100792.34;6001810;28;20035;-69
2022/11/03 08:50:22;;;;;;;4.25;1.58;;;;;;;9.04;85.04;100804.34;6001257;28;20647;-68
2022/11/03 08:53:17;;;;;;;6.18;1.70;;;;;;;9.02;85.08;100785.13;6001531;28;20019;-68
2022/11/03 08:56:13;;;;;;;8.37;2.27;;;;;;;9.13;85.27;100797.41;6001697;28;20058;-69
2022/11/03 08:59:09;;;;;;;6.85;1.73;;;;;;;9.25;84.87;100780.44;6001518;28;20034;-68
2022/11/03 09:02:04;;;;;;;6.47;1.63;;;;;;;9.42;84.43;100782.44;6000828;28;20057;-69
2022/11/03 09:04:59;;;;;;;9.17;2.10;;;;;;;9.62;83.89;100764.78;6001671;28;20034;-69
2022/11/03 09:07:54;;;;;;;7.37;1.80;;;;;;;9.79;83.78;100761.41;5992791;28;20050;-69
2022/11/03 09:10:50;;;;;;;10.57;2.03;;;;;;;9.90;82.67;100758.63;6001034;28;20270;-68
2022/11/03 09:13:45;;;;;;;17.10;2.53;;;;;;;9.97;82.52;100754.47;6001264;28;20037;-68
2022/11/03 09:16:40;;;;;;;9.80;1.97;;;;;;;10.22;82.49;100756.53;6001192;28;20061;-68
2022/11/03 09:19:36;;;;;;;11.63;2.07;;;;;;;10.50;81.81;100755.63;6001026;28;20566;-68
2022/11/03 09:22:31;;;;;;;5.63;2.03;;;;;;;10.69;80.74;100754.72;6000144;28;20083;-69
2022/11/03 09:25:27;;;;;;;7.70;1.80;;;;;;;10.73;80.46;100733.03;6001444;28;20030;-69
2022/11/03 09:28:22;;;;;;;7.57;2.13;;;;;;;10.81;80.06;100744.75;6001114;28;20051;-69
2022/11/03 09:31:18;;;;;;;5.77;1.60;;;;;;;10.72;79.99;100735.84;6000537;28;20439;-69
2022/11/03 09:34:13;;;;;;;7.72;1.88;;;;;;;10.73;80.48;100719.78;6001312;28;20047;-68
2022/11/03 09:37:09;;;;;;;9.52;2.20;;;;;;;11.02;80.22;100732.91;6001125;28;20170;-69
2022/11/03 09:40:05;;;;;;;7.75;2.00;;;;;;;11.13;79.56;100724.75;6000101;28;20113;-68
2022/11/03 09:43:03;;;;;;;7.70;2.35;;;;;;;11.20;79.05;100714.34;6000610;28;20129;-70
2022/11/03 09:45:59;;;;;;;9.35;2.00;;;;;;;11.52;78.73;100733.28;6000746;28;20130;-68
2022/11/03 09:48:55;;;;;;;9.00;2.53;;;;;;;11.63;78.25;100722.41;6000834;28;20030;-69
2022/11/03 09:51:52;;;;;;;5.57;2.15;;;;;;;11.60;78.39;100705.97;5999977;28;20634;-69
2022/11/03 09:54:48;;;;;;;12.07;2.00;;;;;;;11.66;78.07;100706.16;5999965;28;20602;-68
2022/11/03 09:57:44;;;;;;;7.40;2.17;;;;;;;12.00;78.17;100710.78;6000319;28;20026;-69
2022/11/03 10:00:40;;;;;;;9.45;1.77;;;;;;;12.31;76.69;100704.03;5999355;28;20097;-69
2022/11/03 10:03:35;;;;;;;12.93;2.13;;;;;;;12.76;73.73;100704.59;5999097;28;20034;-68
2022/11/03 10:06:30;;;;;;;9.03;2.30;;;;;;;13.03;72.50;100698.19;5999393;28;20886;-69
2022/11/03 10:09:27;;;;;;;5.32;1.75;;;;;;;13.35;72.21;100692.13;5999353;28;20467;-68
2022/11/03 10:12:23;;;;;;;6.38;2.45;;;;;;;13.33;71.38;100691.47;5999428;28;20479;-68
2022/11/03 10:15:21;;;;;;;10.15;2.00;;;;;;;13.64;70.24;100684.50;5998779;28;20077;-67
2022/11/03 10:18:17;;;;;;;6.82;1.67;;;;;;;13.69;70.97;100693.66;5991632;28;20035;-69
2022/11/03 10:21:20;;;;;;;8.30;2.00;;;;;;;13.70;70.20;100694.47;5995466;28;20140;-69
2022/11/03 10:24:15;;;;;;;10.70;1.60;;;;;;;13.52;71.08;100688.47;5999297;28;20122;-68
2022/11/03 10:27:22;;;;;;;6.70;1.97;;;;;;;13.43;71.13;100660.16;5999281;28;20045;-70
2022/11/03 10:30:18;;;;;;;10.43;2.35;;;;;;;13.28;72.61;100656.50;5998862;28;20745;-68
2022/11/03 10:33:27;;;;;;;12.80;2.90;;;;;;;13.01;72.97;100610.50;5999889;28;20031;-68
2022/11/03 10:36:25;;;;;;;9.38;1.98;;;;;;;12.87;73.48;100637.75;5999723;28;20027;-69
2022/11/03 10:39:29;;;;;;;7.68;1.70;;;;;;;12.83;74.73;100665.69;5999604;28;20030;-70
2022/11/03 10:42:31;;;;;;;10.73;3.85;;;;;;;12.73;74.35;100651.69;5999114;28;20130;-68
2022/11/03 10:45:26;;;;;;;9.25;1.92;;;;;;;12.74;74.76;100610.78;5999484;28;20031;-69
2022/11/03 10:48:23;;;;;;;17.77;6.67;;;;;;;12.92;74.16;100638.09;5999395;28;20035;-69
2022/11/03 10:51:19;;;;;;;6.75;2.40;;;;;;;12.96;72.72;100614.66;5999322;28;20082;-68
2022/11/03 10:54:16;;;;;;;8.17;2.03;;;;;;;13.04;72.30;100644.75;5998433;28;20035;-68
2022/11/03 10:57:12;;;;;;;9.32;2.38;;;;;;;13.09;72.11;100631.00;5998115;28;20058;-68
2022/11/03 11:00:16;;;;;;;4.65;2.10;;;;;;;13.23;71.26;100633.03;5997226;28;20077;-68
2022/11/03 11:03:12;;;;;;;4.82;1.58;;;;;;;13.23;71.45;100618.88;5998179;28;20043;-69
2022/11/03 11:06:24;;;;;;;14.82;1.90;;;;;;;13.05;71.82;100611.84;5999043;28;20136;-68
2022/11/03 11:09:24;;;;;;;8.52;2.03;;;;;;;13.11;71.26;100603.22;5997771;28;20031;-69
2022/11/03 11:12:25;;;;;;;8.32;2.05;;;;;;;13.17;71.61;100599.06;5998747;28;20030;-68
2022/11/03 11:15:34;;;;;;;5.95;1.90;;;;;;;13.27;71.45;100585.56;5998836;28;20039;-67
2022/11/03 11:18:29;;;;;;;10.23;1.83;;;;;;;13.43;70.93;100596.22;5998415;28;20038;-68
2022/11/03 11:21:25;;;;;;;7.13;2.17;;;;;;;13.51;71.46;100593.56;5998213;28;20521;-68
2022/11/03 11:24:42;;;;;;;7.28;2.15;;;;;;;13.78;70.64;100593.19;5998585;28;20037;-70
2022/11/03 11:27:40;;;;;;;6.65;1.90;;;;;;;13.69;70.01;100580.91;5998751;28;20038;-69
2022/11/03 11:30:35;;;;;;;7.65;2.40;;;;;;;13.90;70.31;100577.69;5997858;28;20034;-69
2022/11/03 11:33:31;;;;;;;5.83;2.03;;;;;;;13.72;70.38;100557.38;5999120;28;20051;-69
2022/11/03 11:36:27;;;;;;;7.10;1.95;;;;;;;13.81;69.59;100536.03;5996665;28;20039;-69
2022/11/03 11:39:22;;;;;;;6.78;1.95;;;;;;;14.02;69.61;100539.81;5997719;28;20109;-69
2022/11/03 11:42:19;;;;;;;5.85;2.13;;;;;;;13.82;68.97;100533.22;5994216;28;20419;-69
2022/11/03 11:45:53;;;;;;;5.53;1.73;;;;;;;13.93;69.32;100530.19;5996686;28;20050;-69
2022/11/03 11:48:50;;;;;;;4.75;1.88;;;;;;;13.89;68.61;100522.72;5993328;28;20046;-69
2022/11/03 11:51:45;;;;;;;5.97;1.63;;;;;;;13.89;68.61;100518.19;5997602;28;20119;-68
2022/11/03 11:54:41;;;;;;;7.07;2.00;;;;;;;13.76;68.93;100501.09;5995261;28;20031;-69
2022/11/03 11:57:37;;;;;;;4.05;1.50;;;;;;;13.65;69.47;100495.13;5998447;28;20530;-69
2022/11/03 12:00:33;;;;;;;5.75;1.40;;;;;;;13.70;69.06;100491.94;5997312;28;20043;-68
2022/11/03 12:03:38;;;;;;;9.90;1.83;;;;;;;13.66;69.15;100482.63;5995479;28;20105;-70
2022/11/03 12:06:39;;;;;;;4.93;1.65;;;;;;;13.68;69.73;100483.28;5997203;28;20117;-68
2022/11/03 12:09:34;;;;;;;10.57;2.55;;;;;;;13.65;69.31;100483.63;5997734;28;20419;-69
2022/11/03 12:12:32;;;;;;;5.70;1.50;;;;;;;13.52;69.18;100462.88;5996654;28;20035;-69
2022/11/03 12:15:54;;;;;;;4.80;1.38;;;;;;;13.73;70.07;100470.28;5998300;28;20027;-68
2022/11/03 12:18:49;;;;;;;4.57;1.55;;;;;;;13.75;69.75;100452.31;5997820;28;20474;-68
2022/11/03 12:21:47;;;;;;;7.97;2.08;;;;;;;13.92;69.96;100448.53;5997070;28;20038;-69
2022/11/03 12:24:55;;;;;;;14.65;2.75;;;;;;;14.08;69.65;100450.28;5996978;28;20043;-69
2022/11/03 12:27:51;;;;;;;6.07;1.85;;;;;;;14.05;69.22;100432.00;5997013;28;20046;-67
2022/11/03 12:30:46;;;;;;;9.43;1.88;;;;;;;14.03;69.29;100442.81;5997588;28;20580;-67
2022/11/03 12:33:41;;;;;;;7.57;1.70;;;;;;;13.98;69.99;100423.84;5997564;28;20044;-67
2022/11/03 12:36:37;;;;;;;9.50;1.90;;;;;;;14.12;69.50;100412.44;5997556;28;20081;-67
2022/11/03 12:39:33;;;;;;;6.60;1.60;;;;;;;14.06;69.43;100402.47;5997416;28;20054;-67
2022/11/03 12:42:28;;;;;;;8.48;1.60;;;;;;;14.00;71.10;100402.34;5996675;28;20497;-67
2022/11/03 12:45:23;;;;;;;11.13;2.03;;;;;;;13.82;71.87;100389.28;5997599;28;20035;-69
2022/11/03 12:48:19;;;;;;;5.80;1.50;;;;;;;13.76;71.68;100384.66;5998373;28;20130;-67
2022/11/03 12:51:19;;;;;;;5.77;1.90;;;;;;;13.78;72.13;100379.97;6000269;28;20039;-67
2022/11/03 12:54:14;;;;;;;6.20;1.50;;;;;;;13.67;72.72;100370.53;5989908;28;20270;-68
2022/11/03 12:57:10;;;;;;;5.70;1.77;;;;;;;13.72;71.57;100356.72;6001109;28;20054;-68
2022/11/03 13:00:06;;;;;;;11.23;2.00;;;;;;;13.85;71.69;100346.28;6000523;28;20070;-68
2022/11/03 13:03:01;;;;;;;7.20;2.20;;;;;;;13.93;71.88;100356.06;6001259;28;20376;-66
2022/11/03 13:05:56;;;;;;;7.57;2.70;;;;;;;13.90;72.63;100354.59;6001724;28;20445;-68
2022/11/03 13:08:52;;;;;;;6.25;2.08;;;;;;;13.83;72.87;100353.66;6001572;28;20042;-68
2022/11/03 13:15:04;;;;;;;7.47;2.55;;;;;;;13.69;72.53;100341.06;6001075;28;20023;-68
2022/11/03 13:17:59;;;;;;;9.18;2.78;;;;;;;13.74;73.03;100349.34;6001075;28;20146;-68
2022/11/03 13:20:55;;;;;;;6.33;3.97;;;;;;;13.71;72.45;100345.22;6000308;28;20050;-68
2022/11/03 13:23:51;;;;;;;13.53;5.60;;;;;;;13.71;73.13;100334.56;6001298;28;20038;-67
2022/11/03 13:26:47;;;;;;;10.57;3.85;;;;;;;13.69;72.67;100309.09;6001211;28;20038;-68
2022/11/03 13:29:42;;;;;;;50.58;26.50;;;;;;;13.54;72.83;100310.81;6000668;28;20130;-69
2022/11/03 13:32:37;;;;;;;12.70;4.30;;;;;;;13.61;73.02;100293.97;6001888;28;20039;-68
2022/11/03 13:35:33;;;;;;;9.17;2.50;;;;;;;13.64;72.95;100298.13;6000937;28;20156;-69
2022/11/03 13:38:28;;;;;;;7.60;2.27;;;;;;;13.63;73.06;100294.63;5995035;28;20490;-67
2022/11/03 13:41:23;;;;;;;10.83;3.07;;;;;;;13.64;72.88;100306.13;6000061;28;20049;-69
2022/11/03 13:44:19;;;;;;;4.97;2.23;;;;;;;13.63;73.29;100289.31;6000401;28;20039;-70
2022/11/03 13:47:14;;;;;;;7.90;2.70;;;;;;;13.65;72.34;100289.94;6000841;28;20121;-68
2022/11/03 13:50:09;;;;;;;7.27;3.10;;;;;;;13.69;72.49;100293.09;6000507;28;20097;-68
2022/11/03 13:53:04;;;;;;;6.03;4.20;;;;;;;13.58;71.86;100281.00;6001147;28;20027;-68
2022/11/03 13:56:01;;;;;;;6.43;2.40;;;;;;;13.59;72.23;100279.97;6000578;28;20277;-69
2022/11/03 13:58:56;;;;;;;5.40;2.35;;;;;;;13.66;72.37;100282.78;6000505;28;20027;-69
2022/11/03 14:01:51;;;;;;;7.63;1.87;;;;;;;13.61;71.73;100279.81;5999316;28;20041;-69
2022/11/03 14:04:46;;;;;;;4.13;1.47;;;;;;;13.52;72.00;100265.72;6000570;28;20080;-67
2022/11/03 14:07:42;;;;;;;5.47;1.80;;;;;;;13.34;72.67;100246.53;6000355;28;20041;-68
2022/11/03 14:10:37;;;;;;;5.95;1.33;;;;;;;13.33;72.81;100239.53;5999871;28;20499;-68
2022/11/03 14:13:33;;;;;;;6.57;1.50;;;;;;;13.36;72.90;100254.31;6000232;28;20041;-67
2022/11/03 14:16:28;;;;;;;6.17;1.80;;;;;;;13.32;73.00;100248.50;5999816;28;20120;-68